Time;durP1;ratioP1;P1;durP2;ratioP2;P2;SDS_P1;SDS_P2;PMS_P1;PMS_P2;Temp;Humidity;BMP_temperature;BMP_pressure;BME280_temperature;BME280_humidity;BME280_pressure;Samples;Min_cycle;Max_cycle;Signal;HPM_P1;HPM_P2
2021/04/20 00:01:48;;;;;;;19.83;17.87;;;4.40;99.90;;;5.35;81.09;98030.97;5237962;28;20291;-60
2021/04/20 00:04:21;;;;;;;19.57;17.43;;;4.50;99.90;;;5.36;81.11;98015.91;5247777;28;20328;-60
2021/04/20 00:06:53;;;;;;;20.30;18.10;;;4.50;99.90;;;5.46;81.36;98024.25;5247092;28;20283;-59
2021/04/20 00:09:25;;;;;;;19.43;17.53;;;4.60;99.90;;;5.53;81.15;98023.97;5237437;28;20252;-58
2021/04/20 00:11:57;;;;;;;17.33;15.63;;;4.60;99.90;;;5.67;79.94;98018.34;5230923;28;20208;-61
2021/04/20 00:14:29;;;;;;;18.17;16.27;;;4.70;99.90;;;5.56;80.47;98019.13;5232336;28;20239;-59
2021/04/20 00:17:03;;;;;;;19.83;17.73;;;4.60;99.90;;;5.48;80.83;98016.00;5245434;28;20205;-61
2021/04/20 00:19:36;;;;;;;20.17;17.27;;;4.60;99.90;;;5.48;80.73;98012.56;5246809;28;20218;-57
2021/04/20 00:22:08;;;;;;;19.67;17.63;;;4.60;99.90;;;5.50;81.18;98019.53;5244311;28;20220;-57
2021/04/20 00:24:40;;;;;;;20.00;17.97;;;4.60;99.90;;;5.54;80.94;98010.53;5245411;28;20200;-60
2021/04/20 00:27:12;;;;;;;21.97;19.40;;;4.60;99.90;;;5.49;81.17;98012.69;5236549;28;20392;-61
2021/04/20 00:29:44;;;;;;;20.30;17.83;;;4.60;99.90;;;5.51;80.96;98012.81;5245369;28;20222;-61
2021/04/20 00:32:16;;;;;;;20.13;18.10;;;4.70;99.90;;;5.50;81.35;98006.00;5228772;28;20205;-59
2021/04/20 00:34:49;;;;;;;21.27;19.03;;;4.60;99.90;;;5.53;80.75;98001.16;5242887;28;20617;-60
2021/04/20 00:37:21;;;;;;;22.20;19.90;;;4.60;99.90;;;5.56;80.62;97996.31;5241730;28;20668;-60
2021/04/20 00:39:54;;;;;;;21.80;19.50;;;4.70;99.90;;;5.55;80.83;98004.69;5247617;28;20238;-61
2021/04/20 00:42:27;;;;;;;20.83;18.63;;;4.70;99.90;;;5.58;80.96;97997.31;5246278;28;20206;-60
2021/04/20 00:44:59;;;;;;;22.97;20.50;;;4.70;99.90;;;5.57;81.17;98000.63;5247039;28;20192;-61
2021/04/20 00:47:31;;;;;;;22.13;19.83;;;4.70;99.90;;;5.56;80.92;98007.34;5245790;28;20671;-60
2021/04/20 00:50:06;;;;;;;21.97;19.67;;;4.70;99.90;;;5.64;80.98;98002.88;5246005;28;20193;-60
2021/04/20 00:52:38;;;;;;;22.40;20.00;;;4.70;99.90;;;5.64;80.51;98000.34;5243471;28;20282;-62
2021/04/20 00:55:13;;;;;;;23.77;21.13;;;4.70;99.90;;;5.56;80.97;98003.94;5245697;28;20311;-63
2021/04/20 00:57:45;;;;;;;23.53;21.03;;;4.60;99.90;;;5.54;80.74;97985.16;5247228;28;20243;-61
2021/04/20 01:00:20;;;;;;;23.67;21.03;;;4.60;99.90;;;5.54;80.60;97992.78;5241787;28;20284;-60
2021/04/20 01:02:52;;;;;;;22.33;19.87;;;4.60;99.90;;;5.52;80.82;97986.69;5247680;28;20627;-60
2021/04/20 01:05:30;;;;;;;22.33;19.93;;;4.60;99.90;;;5.42;81.33;97987.63;5238614;28;20221;-60
2021/04/20 01:08:06;;;;;;;19.83;17.73;;;4.50;99.90;;;5.39;80.69;97987.38;5241770;28;20302;-60
2021/04/20 01:10:41;;;;;;;21.77;19.43;;;4.50;99.90;;;5.34;81.18;97987.00;5243670;28;20604;-60
2021/04/20 01:13:14;;;;;;;22.30;19.90;;;4.50;99.90;;;5.30;80.95;97985.00;5229737;28;20574;-61
2021/04/20 01:15:49;;;;;;;21.40;19.03;;;4.40;99.90;;;5.25;81.25;97977.81;5245804;28;20195;-60
2021/04/20 01:18:25;;;;;;;22.13;19.73;;;4.40;99.90;;;5.19;81.10;97975.69;5236023;28;20307;-60
2021/04/20 01:21:01;;;;;;;21.00;18.80;;;4.40;99.90;;;5.21;81.49;97984.28;5242770;28;20190;-60
2021/04/20 01:23:47;;;;;;;22.50;19.70;;;4.40;99.90;;;5.08;81.52;97986.59;5231313;28;20613;-60
2021/04/20 01:26:24;;;;;;;21.47;19.17;;;4.30;99.90;;;5.06;81.65;97983.06;5244261;28;20208;-62
2021/04/20 01:28:56;;;;;;;23.17;20.77;;;4.20;99.90;;;5.09;81.64;97984.19;5246381;28;20221;-62
2021/04/20 01:31:30;;;;;;;21.67;19.37;;;4.30;99.90;;;5.11;81.73;97979.25;5227213;28;20219;-60
2021/04/20 01:34:04;;;;;;;21.67;19.43;;;4.30;99.90;;;5.14;81.54;97985.44;5227611;28;20223;-60
2021/04/20 01:36:36;;;;;;;22.23;20.00;;;4.30;99.90;;;5.14;81.82;97979.50;5246001;28;20282;-62
2021/04/20 01:39:11;;;;;;;22.20;19.90;;;4.30;99.90;;;5.12;81.69;97974.31;5244917;28;20634;-61
2021/04/20 01:41:44;;;;;;;22.87;20.47;;;4.30;99.90;;;5.04;82.00;97985.47;5241960;28;20200;-60
2021/04/20 01:44:16;;;;;;;22.00;19.60;;;4.20;99.90;;;5.04;81.81;97984.59;5240977;28;20285;-61
2021/04/20 01:46:49;;;;;;;22.13;19.73;;;4.20;99.90;;;5.03;81.68;97992.94;5245201;28;20203;-62
2021/04/20 01:49:23;;;;;;;21.50;19.30;;;4.20;99.90;;;5.07;81.66;97979.78;5245493;28;20221;-60
2021/04/20 01:51:55;;;;;;;23.33;20.90;;;4.20;99.90;;;5.11;81.55;97989.38;5243132;28;20634;-62
2021/04/20 01:54:27;;;;;;;22.90;20.50;;;4.20;99.90;;;5.06;81.26;97978.88;5246713;28;20312;-62
2021/04/20 01:57:02;;;;;;;22.13;19.83;;;4.10;99.90;;;5.02;81.15;97987.00;5243746;28;20290;-60
2021/04/20 01:59:34;;;;;;;22.47;20.07;;;4.10;99.90;;;5.12;80.84;97973.41;5246225;28;20229;-60
2021/04/20 02:02:06;;;;;;;21.23;18.77;;;4.20;99.90;;;4.99;81.05;97981.69;5244882;28;20707;-62
2021/04/20 02:04:39;;;;;;;21.43;19.23;;;4.10;99.90;;;5.01;80.85;97984.31;5246677;28;20612;-61
2021/04/20 02:07:13;;;;;;;24.33;21.70;;;4.10;99.90;;;5.02;81.06;97991.19;5244725;28;20610;-60
2021/04/20 02:09:45;;;;;;;25.00;21.00;;;4.10;99.90;;;5.04;81.14;97985.47;5233946;28;20707;-60
2021/04/20 02:12:18;;;;;;;24.23;21.63;;;4.10;99.90;;;5.03;81.16;97983.69;5231778;28;20221;-62
2021/04/20 02:14:50;;;;;;;26.60;23.30;;;4.10;99.90;;;4.99;81.10;97988.41;5240146;28;20310;-60
2021/04/20 02:17:23;;;;;;;27.20;22.70;;;4.00;99.90;;;4.96;80.95;97989.91;5230310;28;20198;-60
2021/04/20 02:19:56;;;;;;;26.10;22.93;;;4.00;99.90;;;4.92;80.80;97990.44;5240811;28;20212;-58
2021/04/20 02:22:28;;;;;;;24.13;21.00;;;4.00;99.90;;;4.88;80.75;97988.41;5237127;28;20211;-60
2021/04/20 02:25:00;;;;;;;24.93;21.83;;;4.00;99.90;;;4.87;81.14;97990.84;5245822;28;20280;-60
2021/04/20 02:27:35;;;;;;;25.90;21.67;;;4.00;99.90;;;4.90;81.11;97986.91;5244337;28;20202;-62
2021/04/20 02:30:11;;;;;;;25.10;21.87;;;4.00;99.90;;;4.92;81.26;97987.91;5238970;28;20576;-61
2021/04/20 02:32:43;;;;;;;24.57;21.97;;;4.00;99.90;;;4.94;81.23;97988.03;5226338;28;20232;-60
2021/04/20 02:35:18;;;;;;;24.27;21.43;;;4.00;99.90;;;4.92;81.36;97977.78;5242205;28;20248;-60
2021/04/20 02:37:51;;;;;;;24.87;20.93;;;4.00;99.90;;;4.96;81.22;97986.50;5244282;28;20695;-60
2021/04/20 02:40:27;;;;;;;21.73;19.43;;;4.10;99.90;;;4.95;81.21;97990.69;5245998;28;21499;-62
2021/04/20 02:43:01;;;;;;;23.50;21.00;;;4.10;99.90;;;4.89;81.15;97986.75;5244869;28;20287;-60
2021/04/20 02:45:33;;;;;;;21.80;19.47;;;4.00;99.90;;;4.93;80.82;97987.16;5249869;28;20225;-59
2021/04/20 02:48:07;;;;;;;21.77;19.37;;;4.00;99.90;;;4.87;80.82;97985.78;5261683;22;20236;-64
2021/04/20 02:50:40;;;;;;;22.63;19.67;;;4.00;99.90;;;4.84;81.38;97981.34;5250705;28;20376;-61
2021/04/20 02:53:16;;;;;;;22.33;19.93;;;3.90;99.90;;;4.84;80.80;97976.28;5248946;28;20202;-61
2021/04/20 02:55:48;;;;;;;20.70;18.60;;;3.90;99.90;;;4.85;80.93;97978.03;5254525;28;20750;-62
2021/04/20 02:58:24;;;;;;;23.30;20.33;;;3.90;99.90;;;4.83;81.01;97971.94;5244582;28;20286;-61
2021/04/20 03:01:03;;;;;;;20.40;18.13;;;3.90;99.90;;;4.86;81.14;97969.66;5229940;28;20229;-61
2021/04/20 03:03:38;;;;;;;21.90;19.60;;;4.00;99.90;;;4.88;81.04;97968.16;5230249;28;20614;-61
2021/04/20 03:06:12;;;;;;;20.53;18.43;;;4.00;99.90;;;4.88;81.04;97973.22;5243149;28;20280;-61
2021/04/20 03:08:44;;;;;;;20.37;18.27;;;4.00;99.90;;;4.85;80.49;97970.44;5243847;28;20678;-61
2021/04/20 03:11:21;;;;;;;20.87;18.10;;;3.90;99.90;;;4.90;80.75;97968.28;5243709;28;20207;-62
2021/04/20 03:13:54;;;;;;;22.23;19.97;;;3.90;99.90;;;4.84;80.83;97973.75;5238005;28;20259;-61
2021/04/20 03:16:36;;;;;;;24.50;21.90;;;3.90;99.90;;;4.76;80.63;97971.34;5237962;28;20215;-61
2021/04/20 03:19:08;;;;;;;24.33;20.90;;;3.80;99.90;;;4.78;80.72;97963.13;5240140;28;20218;-61
2021/04/20 03:21:42;;;;;;;26.97;22.60;;;3.80;99.90;;;4.70;81.39;97962.50;5236117;28;20616;-62
2021/04/20 03:24:47;;;;;;;26.77;23.83;;;3.80;99.90;;;4.78;81.77;97965.66;5229166;28;20280;-61
2021/04/20 03:27:19;;;;;;;27.60;23.83;;;3.90;99.90;;;4.72;81.53;97965.13;5230741;28;20694;-62
2021/04/20 03:29:54;;;;;;;24.30;21.10;;;3.80;99.90;;;4.66;81.69;97964.66;5229208;28;20715;-62
2021/04/20 03:32:27;;;;;;;27.83;22.83;;;3.80;99.90;;;4.56;81.45;97959.63;5228227;28;20200;-62
2021/04/20 03:35:06;;;;;;;24.00;21.50;;;3.70;99.90;;;4.48;82.29;97956.44;5228847;28;20605;-61
2021/04/20 03:37:52;;;;;;;24.93;22.33;;;3.70;99.90;;;4.54;82.30;97953.53;5234570;28;20282;-62
2021/04/20 03:40:25;;;;;;;23.20;20.63;;;3.80;99.90;;;4.68;82.49;97955.53;5231769;28;20201;-61
2021/04/20 03:43:03;;;;;;;24.67;21.27;;;3.90;99.90;;;4.67;82.36;97946.19;5240094;28;20484;-61
2021/04/20 03:45:46;;;;;;;23.10;20.07;;;3.90;99.90;;;4.68;82.46;97950.47;5228670;28;20459;-61
2021/04/20 03:48:24;;;;;;;25.53;22.17;;;3.80;99.90;;;4.72;82.59;97949.94;5218963;28;20229;-62
2021/04/20 03:51:01;;;;;;;26.23;21.80;;;3.90;99.90;;;4.75;82.50;97945.16;5228285;28;20205;-61
2021/04/20 03:53:35;;;;;;;24.40;20.50;;;3.90;99.90;;;4.81;82.91;97957.41;5243829;28;20229;-62
2021/04/20 03:56:08;;;;;;;24.43;21.73;;;4.00;99.90;;;4.81;82.58;97954.88;5243622;28;20277;-61
2021/04/20 03:58:43;;;;;;;26.30;23.03;;;3.90;99.90;;;4.81;82.68;97948.19;5234776;28;20222;-61
2021/04/20 04:01:18;;;;;;;25.93;22.83;;;4.00;99.90;;;4.82;82.76;97942.34;5235842;28;20201;-61
2021/04/20 04:03:53;;;;;;;25.47;21.77;;;4.00;99.90;;;4.88;81.96;97947.91;5247221;28;20194;-61
2021/04/20 04:06:26;;;;;;;24.00;21.40;;;4.00;99.90;;;4.89;81.87;97946.25;5236122;28;20275;-61
2021/04/20 04:08:58;;;;;;;24.10;21.50;;;4.00;99.90;;;4.91;81.55;97955.72;5230745;28;20300;-61
2021/04/20 04:11:34;;;;;;;24.30;20.67;;;4.00;99.90;;;4.84;81.22;97956.03;5237518;28;20202;-64
2021/04/20 04:14:08;;;;;;;24.63;21.93;;;4.00;99.90;;;4.85;81.38;97962.84;5231941;28;20216;-61
2021/04/20 04:16:45;;;;;;;27.87;22.77;;;4.00;99.90;;;4.84;81.43;97963.63;5234305;28;20619;-61
2021/04/20 04:19:18;;;;;;;30.20;24.13;;;4.00;99.90;;;4.84;81.24;97966.16;5232302;28;20228;-61
2021/04/20 04:21:57;;;;;;;28.27;24.00;;;3.80;99.90;;;4.77;81.97;97957.94;5228741;28;20230;-61
2021/04/20 04:24:36;;;;;;;26.97;24.10;;;3.80;99.90;;;4.74;81.99;97964.50;5232169;28;20539;-61
2021/04/20 04:27:09;;;;;;;27.83;23.03;;;3.80;99.90;;;4.76;82.28;97956.16;5228086;28;20300;-61
2021/04/20 04:29:42;;;;;;;27.83;22.40;;;3.80;99.90;;;4.72;82.01;97960.06;5234949;28;20579;-61
2021/04/20 04:32:18;;;;;;;26.53;23.70;;;3.80;99.90;;;4.73;82.79;97952.63;5233337;28;20661;-60
2021/04/20 04:34:51;;;;;;;26.63;22.77;;;3.90;99.90;;;4.82;82.58;97962.59;5233545;28;20216;-61
2021/04/20 04:37:25;;;;;;;23.77;21.07;;;3.90;99.90;;;4.84;82.54;97961.09;5229618;28;20209;-61
2021/04/20 04:39:57;;;;;;;25.20;22.17;;;4.00;99.90;;;4.83;82.50;97958.41;5239033;28;20340;-61
2021/04/20 04:42:30;;;;;;;25.80;22.07;;;4.00;99.90;;;4.86;82.25;97954.47;5227622;28;20224;-61
2021/04/20 04:45:06;;;;;;;23.80;20.07;;;4.00;99.90;;;4.85;82.60;97957.78;5224609;28;20198;-61
2021/04/20 04:47:39;;;;;;;25.70;22.07;;;4.00;99.90;;;4.84;82.43;97956.03;5223084;28;20293;-61
2021/04/20 04:50:13;;;;;;;25.03;22.33;;;4.00;99.90;;;4.87;82.32;97961.34;5226738;28;20227;-63
2021/04/20 04:52:47;;;;;;;25.43;22.03;;;4.00;99.90;;;4.91;82.51;97962.44;5229603;28;20581;-63
2021/04/20 04:55:19;;;;;;;26.43;22.97;;;4.00;99.90;;;4.99;82.37;97955.47;5242466;28;20716;-63
2021/04/20 04:57:53;;;;;;;25.13;21.87;;;4.10;99.90;;;4.97;82.49;97958.75;5226327;28;20580;-63
2021/04/20 05:00:26;;;;;;;24.67;21.70;;;4.10;99.90;;;5.04;82.00;97960.16;5227059;28;20193;-63
2021/04/20 05:03:00;;;;;;;25.37;22.63;;;4.20;99.90;;;5.15;81.64;97968.59;5220621;28;20196;-63
2021/04/20 05:05:36;;;;;;;26.60;22.20;;;4.20;99.90;;;5.13;81.89;97960.00;5225605;28;20195;-63
2021/04/20 05:08:09;;;;;;;27.50;24.00;;;4.20;99.90;;;5.19;81.63;97970.63;5225845;28;20306;-62
2021/04/20 05:10:42;;;;;;;29.00;23.40;;;4.30;99.90;;;5.29;81.10;97972.22;5230068;28;20648;-62
2021/04/20 05:13:14;;;;;;;28.77;24.53;;;4.40;99.90;;;5.39;80.30;97974.72;5230607;28;20238;-62
2021/04/20 05:15:46;;;;;;;29.93;24.43;;;4.30;99.90;;;5.30;80.56;97967.28;5239201;28;20292;-63
2021/04/20 05:18:20;;;;;;;29.03;24.87;;;4.30;99.90;;;5.30;80.79;97967.28;5241158;28;20314;-62
2021/04/20 05:20:53;;;;;;;26.80;22.73;;;4.40;99.90;;;5.35;81.15;97967.63;5229905;28;20220;-62
2021/04/20 05:23:25;;;;;;;27.50;22.77;;;4.40;99.90;;;5.37;80.75;97966.97;5228942;28;20200;-63
2021/04/20 05:25:57;;;;;;;27.27;22.43;;;4.40;99.90;;;5.42;81.17;97970.78;5224359;28;20215;-63
2021/04/20 05:28:29;;;;;;;27.87;23.37;;;4.50;99.90;;;5.49;80.74;97966.16;5219060;28;20220;-63
2021/04/20 05:31:01;;;;;;;28.43;22.37;;;4.50;99.90;;;5.57;80.28;97966.00;5217482;28;20286;-63
2021/04/20 05:33:34;;;;;;;24.80;21.67;;;4.60;99.90;;;5.63;80.03;97968.13;5225559;28;20197;-63
2021/04/20 05:36:08;;;;;;;26.73;23.33;;;4.60;99.90;;;5.60;79.78;97966.25;5225138;28;20712;-60
2021/04/20 05:38:40;;;;;;;25.57;22.80;;;4.50;99.90;;;5.61;80.16;97962.09;5225658;28;20608;-57
2021/04/20 05:41:13;;;;;;;25.57;22.50;;;4.60;99.90;;;5.65;80.00;97969.16;5225172;28;20303;-62
2021/04/20 05:43:45;;;;;;;27.40;23.47;;;4.60;99.90;;;5.66;79.85;97965.84;5225315;28;20197;-59
2021/04/20 05:46:18;;;;;;;26.37;22.07;;;4.70;99.90;;;5.74;79.90;97957.16;5225296;28;20395;-59
2021/04/20 05:48:53;;;;;;;23.57;20.97;;;4.70;99.90;;;6.04;78.24;97967.94;5226439;28;20622;-58
2021/04/20 05:51:25;;;;;;;23.83;21.23;;;4.90;99.90;;;5.71;79.16;97964.53;5225680;28;20592;-61
2021/04/20 05:53:57;;;;;;;23.43;20.83;;;4.90;99.90;;;5.74;79.75;97964.78;5222794;28;20201;-62
2021/04/20 05:56:29;;;;;;;23.27;20.73;;;4.80;99.90;;;5.87;79.97;97967.50;5225224;28;20207;-60
2021/04/20 05:59:04;;;;;;;25.27;22.67;;;5.00;99.90;;;5.99;79.62;97966.72;5225239;28;20213;-62
2021/04/20 06:01:40;;;;;;;24.87;22.17;;;5.00;99.90;;;6.01;79.77;97967.69;5227544;28;20196;-63
2021/04/20 06:04:15;;;;;;;25.63;22.93;;;5.00;99.90;;;6.03;79.33;97968.69;5225631;28;20201;-64
2021/04/20 06:06:47;;;;;;;26.10;23.10;;;5.00;99.90;;;6.02;79.48;97966.94;5225943;28;20199;-63
2021/04/20 06:09:20;;;;;;;27.47;23.17;;;5.10;99.90;;;6.07;79.31;97963.09;5229328;28;20318;-62
2021/04/20 06:11:52;;;;;;;26.93;22.73;;;5.10;99.90;;;6.15;79.26;97973.81;5224576;28;20231;-62
2021/04/20 06:14:24;;;;;;;23.93;21.40;;;5.20;99.90;;;6.12;79.46;97968.50;5224957;28;20279;-62
2021/04/20 06:16:57;;;;;;;24.77;22.27;;;5.20;99.90;;;6.18;78.90;97964.81;5223747;28;20745;-62
2021/04/20 06:19:30;;;;;;;24.37;21.80;;;5.20;99.90;;;6.25;78.82;97967.00;5224252;28;20319;-62
2021/04/20 06:22:03;;;;;;;25.03;22.33;;;5.30;99.90;;;6.31;78.89;97969.13;5235535;28;20216;-62
2021/04/20 06:24:36;;;;;;;26.77;21.80;;;5.40;99.90;;;6.43;78.68;97974.25;5224659;28;20279;-62
2021/04/20 06:27:09;;;;;;;25.13;22.17;;;5.40;99.90;;;6.52;79.03;97987.63;5227223;28;20204;-62
2021/04/20 06:29:42;;;;;;;24.27;21.80;;;5.50;99.90;;;6.59;78.27;97989.84;5223135;28;20645;-62
2021/04/20 06:32:15;;;;;;;26.03;22.60;;;5.60;99.90;;;6.61;78.20;97997.56;5225643;28;20205;-63
2021/04/20 06:34:48;;;;;;;29.10;23.57;;;5.50;99.90;;;6.72;77.70;97994.16;5224742;28;20755;-63
2021/04/20 06:37:20;;;;;;;26.73;23.83;;;5.60;99.90;;;6.59;78.64;98002.56;5215379;28;20672;-63
2021/04/20 06:39:52;;;;;;;26.47;22.97;;;5.60;99.90;;;6.65;78.50;97985.22;5225399;28;20655;-63
2021/04/20 06:42:26;;;;;;;27.03;23.73;;;5.70;99.90;;;6.72;78.59;97999.25;5226660;28;20211;-63
2021/04/20 06:45:05;;;;;;;26.90;24.00;;;5.70;99.90;;;6.74;79.23;97996.06;5225050;28;20284;-63
2021/04/20 06:47:44;;;;;;;29.43;25.27;;;5.80;99.90;;;6.91;79.11;97996.41;5217848;28;20643;-63
2021/04/20 06:50:20;;;;;;;26.37;23.30;;;5.90;99.90;;;7.17;77.88;97994.09;5224015;28;20734;-63
2021/04/20 06:53:00;;;;;;;25.83;22.73;;;6.10;99.90;;;7.39;77.94;97993.13;5220726;28;20193;-63
2021/04/20 06:55:43;;;;;;;27.83;24.13;;;6.30;99.90;;;7.56;76.57;97990.09;5223514;28;20228;-63
2021/04/20 06:58:22;;;;;;;29.00;25.30;;;6.60;99.90;;;7.62;75.64;97988.00;5223616;28;20222;-63
2021/04/20 07:00:59;;;;;;;27.47;24.57;;;6.50;99.90;;;7.74;76.54;97982.88;5216970;28;20307;-63
2021/04/20 07:03:40;;;;;;;30.07;25.47;;;6.70;99.90;;;7.87;76.10;97987.19;5224751;28;20407;-62
2021/04/20 07:06:22;;;;;;;30.83;25.83;;;6.80;99.90;;;8.03;76.30;97978.91;5229474;28;20247;-62
2021/04/20 07:09:00;;;;;;;27.77;24.77;;;7.00;99.90;;;8.20;75.86;97988.59;5224114;28;20300;-63
2021/04/20 07:11:34;;;;;;;31.63;26.50;;;7.10;99.90;;;8.25;75.06;97986.38;5225163;28;20213;-63
2021/04/20 07:14:07;;;;;;;31.27;26.10;;;7.10;99.90;;;8.30;75.43;97980.81;5229164;28;20205;-63
2021/04/20 07:16:47;;;;;;;31.80;27.07;;;7.20;99.90;;;8.44;74.42;97978.31;5224998;28;20238;-63
2021/04/20 07:19:36;;;;;;;29.83;26.63;;;7.30;99.90;;;8.40;74.88;97977.25;5224029;28;20221;-63
2021/04/20 07:22:59;;;;;;;31.97;28.37;;;7.30;99.90;;;8.48;75.01;97976.09;5238794;28;20207;-63
2021/04/20 07:25:50;;;;;;;33.33;28.43;;;7.40;99.90;;;8.50;75.49;97986.41;5199764;28;20212;-63
2021/04/20 07:28:32;;;;;;;39.33;31.47;;;7.40;99.90;;;8.65;75.49;97983.97;5228016;28;20247;-63
2021/04/20 07:31:10;;;;;;;34.47;29.37;;;7.50;99.90;;;8.93;74.06;97979.03;5225898;28;20742;-63
2021/04/20 07:33:58;;;;;;;39.53;32.50;;;7.70;99.90;;;9.07;74.24;97979.91;5227541;28;20205;-63
2021/04/20 07:36:44;;;;;;;35.90;30.03;;;7.90;99.90;;;9.24;73.36;97975.13;5235104;28;20695;-63
2021/04/20 07:39:22;;;;;;;31.77;26.67;;;8.10;99.90;;;9.48;73.34;97974.91;5218047;28;20222;-63
2021/04/20 07:42:05;;;;;;;31.57;26.40;;;8.30;99.90;;;9.80;73.09;97978.59;5234136;28;20282;-63
2021/04/20 07:44:45;;;;;;;31.03;25.67;;;8.50;99.90;;;10.05;72.41;97971.66;5227315;28;20678;-62
2021/04/20 07:47:21;;;;;;;32.60;27.73;;;8.80;99.90;;;10.22;71.37;97965.00;5218282;28;20206;-63
2021/04/20 07:50:03;;;;;;;31.03;26.80;;;9.00;99.90;;;10.56;70.25;97972.16;5221411;28;20318;-63
2021/04/20 07:52:44;;;;;;;30.27;26.90;;;9.20;99.90;;;10.80;70.25;97960.78;5227497;28;20589;-63
2021/04/20 07:55:22;;;;;;;30.80;26.17;;;9.40;99.90;;;11.04;68.77;97962.97;5227672;28;20253;-63
2021/04/20 07:57:58;;;;;;;29.73;26.48;;;9.60;99.90;;;11.30;68.45;97953.31;5244834;28;20201;-63
2021/04/20 08:00:39;;;;;;;31.08;26.40;;;9.90;99.90;;;11.65;67.19;97951.03;5208755;28;20288;-63
2021/04/20 08:03:21;;;;;;;29.02;25.83;;;10.20;99.90;;;11.88;65.98;97959.09;5242798;28;20192;-63
2021/04/20 08:06:02;;;;;;;30.77;26.40;;;10.50;99.90;;;12.23;64.50;97960.09;5229717;28;20200;-63
2021/04/20 08:08:44;;;;;;;31.98;27.85;;;10.70;99.90;;;12.52;64.74;97952.19;5232203;28;20307;-64
2021/04/20 08:11:23;;;;;;;30.08;26.77;;;11.00;99.90;;;13.02;63.06;97943.59;5228111;28;20201;-63
2021/04/20 08:14:07;;;;;;;28.58;25.55;;;11.50;99.90;;;13.31;62.28;97953.53;5241725;28;20296;-64
2021/04/20 08:16:45;;;;;;;31.20;27.30;;;11.70;99.90;;;13.54;61.93;97946.91;5227523;28;20711;-63
2021/04/20 08:19:24;;;;;;;30.98;26.02;;;12.20;99.90;;;13.95;61.21;97951.38;5234254;28;20708;-64
2021/04/20 08:21:58;;;;;;;31.65;27.15;;;12.80;99.90;;;14.35;59.46;97940.28;5227648;28;20717;-64
2021/04/20 08:24:36;;;;;;;32.85;26.67;;;13.20;99.90;;;14.33;58.10;97939.34;5248880;28;20568;-64
2021/04/20 08:27:16;;;;;;;30.80;27.20;;;13.10;99.90;;;14.50;57.92;97937.50;5226522;28;20189;-63
2021/04/20 08:29:53;;;;;;;30.20;26.42;;;13.10;99.90;;;14.72;56.83;97931.59;5208243;28;20226;-64
2021/04/20 08:32:28;;;;;;;31.00;27.15;;;13.40;99.90;;;14.68;57.41;97929.69;5212974;28;20275;-64
2021/04/20 08:35:09;;;;;;;30.88;27.42;;;13.40;99.90;;;14.87;56.30;97924.50;5228378;28;20227;-63
2021/04/20 08:38:02;;;;;;;29.63;25.77;;;13.70;99.90;;;15.05;56.34;97926.94;5227890;28;20197;-64
2021/04/20 08:40:45;;;;;;;28.20;25.17;;;13.80;99.90;;;15.16;56.33;97923.13;5218058;28;20216;-63
2021/04/20 08:43:55;;;;;;;29.23;26.13;;;14.00;99.90;;;15.34;55.12;97928.16;5228345;28;20233;-63
2021/04/20 08:46:47;;;;;;;29.73;25.50;;;14.20;99.90;;;15.51;55.06;97921.06;5215071;28;20343;-64
2021/04/20 08:49:42;;;;;;;27.83;24.92;;;14.30;99.90;;;15.69;54.04;97920.94;5236122;22;20284;-59
2021/04/20 08:52:29;;;;;;;28.33;24.40;;;14.50;99.90;;;15.77;53.22;97925.53;5208628;28;20294;-61
2021/04/20 08:55:15;;;;;;;25.88;23.15;;;14.70;99.90;;;15.75;54.35;97916.88;5207540;28;20229;-60
2021/04/20 08:58:22;;;;;;;23.35;20.95;;;14.70;99.90;;;15.94;52.34;97927.88;5211570;28;20279;-60
2021/04/20 09:01:08;;;;;;;23.23;20.83;;;14.90;99.90;;;16.14;49.55;97916.59;5190165;28;20198;-60
2021/04/20 09:03:53;;;;;;;22.88;20.50;;;15.20;99.00;;;16.15;50.57;97918.34;5199612;28;20293;-59
2021/04/20 09:06:32;;;;;;;23.92;21.45;;;15.20;99.20;;;16.41;49.51;97916.69;5186046;28;20194;-59
2021/04/20 09:09:07;;;;;;;23.08;20.75;;;15.50;98.30;;;16.21;49.54;97915.97;5196024;28;20473;-59
2021/04/20 09:11:47;;;;;;;23.20;20.80;;;15.30;98.20;;;16.43;50.05;97915.03;5205107;28;20269;-59
2021/04/20 09:14:27;;;;;;;22.77;20.58;;;15.50;98.60;;;16.69;49.83;97911.59;5195357;28;20289;-60
2021/04/20 09:17:05;;;;;;;21.67;19.52;;;15.80;98.40;;;17.00;48.27;97917.00;5205504;28;20197;-60
2021/04/20 09:19:44;;;;;;;24.75;22.00;;;16.10;97.50;;;17.22;47.84;97909.91;5193410;28;20246;-60
2021/04/20 09:22:32;;;;;;;21.98;19.48;;;16.10;97.10;;;17.11;48.00;97902.72;5190259;28;20285;-60
2021/04/20 09:25:13;;;;;;;23.75;21.25;;;16.10;97.30;;;17.29;47.36;97905.00;5186891;28;20289;-60
2021/04/20 09:27:57;;;;;;;21.80;19.52;;;16.30;96.30;;;17.25;47.83;97904.84;5197734;28;20282;-60
2021/04/20 09:30:36;;;;;;;21.88;19.48;;;16.30;96.40;;;17.39;47.15;97898.41;5183982;28;20214;-60
2021/04/20 09:33:19;;;;;;;18.50;16.63;;;16.40;96.50;;;17.28;45.80;97903.25;5167798;28;20202;-58
2021/04/20 09:35:53;;;;;;;21.75;19.58;;;16.20;95.50;;;17.46;44.89;97896.91;5183924;28;20753;-60
2021/04/20 09:38:27;;;;;;;20.55;18.45;;;16.20;95.00;;;17.45;45.19;97893.41;5196033;28;20202;-60
2021/04/20 09:41:00;;;;;;;20.13;18.02;;;16.20;95.10;;;17.42;45.11;97895.91;5187277;28;20723;-59
2021/04/20 09:43:41;;;;;;;19.45;17.52;;;16.30;95.00;;;17.56;44.97;97894.63;5188394;28;20190;-60
2021/04/20 09:46:22;;;;;;;18.92;17.02;;;16.40;94.90;;;17.79;44.08;97891.88;5191983;28;20264;-60
2021/04/20 09:49:06;;;;;;;15.32;13.82;;;16.60;93.70;;;17.80;42.73;97896.22;5196422;28;20279;-60
2021/04/20 09:51:47;;;;;;;16.60;15.00;;;16.70;92.50;;;17.81;42.42;97895.38;5193687;28;20248;-60
2021/04/20 09:54:24;;;;;;;19.20;17.30;;;16.70;92.30;;;18.13;42.36;97890.25;5198559;28;20193;-60
2021/04/20 09:57:02;;;;;;;18.42;16.50;;;17.00;92.20;;;18.12;42.33;97889.38;5183314;28;20689;-60
2021/04/20 09:59:45;;;;;;;18.73;17.00;;;17.00;92.20;;;17.74;43.20;97891.72;5192539;28;20225;-60
2021/04/20 10:02:38;;;;;;;17.25;15.55;;;16.80;92.30;;;17.72;44.55;97893.38;5187101;28;20214;-60
2021/04/20 10:05:18;;;;;;;16.77;15.13;;;16.80;93.40;;;18.11;43.92;97886.75;5199159;28;20252;-59
2021/04/20 10:08:09;;;;;;;19.20;17.30;;;17.00;93.30;;;18.23;45.08;97881.94;5184488;28;20207;-60
2021/04/20 10:10:52;;;;;;;18.20;16.40;;;17.20;94.30;;;18.75;43.71;97883.31;5197038;28;20256;-60
2021/04/20 10:13:48;;;;;;;19.42;17.48;;;17.70;92.80;;;18.77;41.67;97883.34;5204519;28;20193;-60
2021/04/20 10:16:24;;;;;;;18.42;16.52;;;17.50;91.90;;;18.68;42.34;97881.34;5193583;28;20308;-60
2021/04/20 10:19:14;;;;;;;18.02;16.27;;;17.30;92.50;;;18.45;41.94;97883.34;5183057;28;20304;-60
2021/04/20 10:22:19;;;;;;;19.58;17.55;;;17.10;92.20;;;18.06;42.07;97872.81;5189983;28;20684;-60
2021/04/20 10:25:08;;;;;;;18.92;16.90;;;16.70;92.10;;;18.09;42.75;97870.31;5183806;28;20206;-60
2021/04/20 10:27:44;;;;;;;16.95;15.27;;;16.30;93.20;;;17.95;43.91;97875.97;5182750;28;20206;-60
2021/04/20 10:30:19;;;;;;;17.75;15.95;;;16.60;93.30;;;17.93;43.82;97871.59;5189867;28;20231;-60
2021/04/20 10:32:53;;;;;;;19.10;17.08;;;16.80;93.00;;;18.08;43.73;97876.31;5194176;28;20248;-60
2021/04/20 10:35:32;;;;;;;18.23;16.42;;;17.00;92.60;;;18.09;43.14;97870.31;5198892;28;20210;-60
2021/04/20 10:38:13;;;;;;;17.65;15.82;;;16.80;93.00;;;18.09;43.65;97867.72;5200681;28;20283;-60
2021/04/20 10:40:46;;;;;;;18.85;16.95;;;16.70;93.00;;;17.80;44.99;97865.22;5189442;28;20258;-60
2021/04/20 10:43:22;;;;;;;17.95;16.15;;;16.40;94.30;;;17.73;44.55;97863.22;5182940;28;20207;-60
2021/04/20 10:45:56;;;;;;;19.70;17.77;;;16.40;93.70;;;17.44;45.41;97864.97;5188710;28;20281;-60
2021/04/20 10:48:28;;;;;;;18.33;16.63;;;16.10;94.10;;;17.26;45.45;97863.56;5184893;28;20752;-60
2021/04/20 10:51:02;;;;;;;19.10;17.13;;;15.90;94.40;;;17.30;45.80;97856.78;5184558;28;20202;-60
2021/04/20 10:53:39;;;;;;;20.77;18.63;;;15.70;95.00;;;17.27;45.35;97851.53;5197230;28;20578;-60
2021/04/20 10:56:14;;;;;;;16.33;14.82;;;15.70;94.40;;;17.48;45.52;97859.94;5195354;28;20808;-60